Iretama, Brazil
Current Conditions -  °F | °C
As of 6:00 AM on Wednesday 26 Nov 2014 (Local Time) from SBMG Reporting Station
Broken Clouds Broken Clouds  
Wind Chill: 68°   Ceiling: 2000
Heat Index: 68°   Visibility: 6mi
Dew Point: 68°   Wind: 5mph
Humidity: 100%   Direction: 10°N
Pressure: 29.77"   Gusts: NA
Location:  24.42°S, 52.1°W
Report Text: SBMG 260800Z 01004KT 9999 BKN020 BKN025 20/20 Q1008
Loading
Personal Weather Stations






























Interactive Weather Map New forecast layout! Learn more

10-Day Weather Forecast

Advertisements
Track Severe Weather on mobile